Ana Sayfa
METAR-TAF:

METAR-TAF

Havaalanları :

Salina Municipal Airport

Salina, Kansas, Amerika Birleşik Devletleri

Enlem: 38-46-48N, Boylam: 097-38-39W, yükseklik: 387 m

Güncel hava durumu gözlemi

Rapor saat 06:53 UTC de 35 dakika önce yapıldı.
Rüzgar güneydan 11 kt
Sıcaklık 2°C
Nem 87%
Basınç 1018 hPa
Görüş mesafesi: 16.1 km
7000 ft yükseklikte çok bulutlu

METAR: KSLN 010653Z AUTO 18011KT 10SM OVC070 02/00 A3005 RMK AO2 SLP179 T00220000

Saat: 01:28 (07:28 UTC)

Tahmin

Rapor saat 05:20 UTC de 2 saat ve 8 dakika önce yapıldı.
Ayın 01'si saat 06 UTC'den ayın 02'si saat 06 UTC'ye kadar geçerli Tahmin
Rüzgar güneydan 15 kt ve 23 kt'a kadar ani rüzgarlar
Görüş mesafesi: 10 km
1500 ft yükseklikte parçalı bulutlu
3500 ft yükseklikte parçalı çok bulutlu
Ayın 01'si saat 1200 UTC'den
Rüzgar güneydan 13 kt
Görüş mesafesi: 10 km
3500 ft yükseklikte az bulutlu

TAF: KSLN 010520Z 0106/0206 19015G23KT P6SM SCT015 BKN035 FM011200 18013KT P6SM FEW035

4.000'den fazla havaalanı için hava durumu gözlemleri ve tahminleri (METAR ve TAF raporları).

Kullanılabilir istasyonlar harita üzerinde sarı ve kırmızı noktalarla gösterilir.

İstasyonun adını görmek için fareyi noktanın üzerinde gezdirin.

Sonrasında hava gözlem ve tahminlerini görmek için tıklayın.

Haritayı değiştirmek için: yaklaştırmak için siyah artı işaretli yeşil düğmeye ve uzaklaştırmak için de eksi işaretli düğmeye hızla tıklayın; bitişik haritalar için yeşil okları kullanın.


METAR-TAF: